createdAt,value
2018-10-05T00:00:30.514Z,6.00
2018-10-05T00:02:59.662Z,5.90
2018-10-05T00:05:28.800Z,5.90
2018-10-05T00:07:57.814Z,5.90
2018-10-05T00:10:26.898Z,5.80
2018-10-05T00:12:56.142Z,5.80
2018-10-05T00:15:25.222Z,5.80
2018-10-05T00:17:54.337Z,5.70
2018-10-05T00:20:23.517Z,5.70
2018-10-05T00:22:52.736Z,5.70
2018-10-05T00:25:21.809Z,5.70
2018-10-05T00:27:50.950Z,5.70
2018-10-05T00:30:20.103Z,5.70
2018-10-05T00:32:49.228Z,5.70
2018-10-05T00:35:18.311Z,5.70
2018-10-05T00:37:47.351Z,5.70
2018-10-05T00:40:16.385Z,5.70
2018-10-05T00:42:45.424Z,5.60
2018-10-05T00:45:14.572Z,5.60
2018-10-05T00:47:43.600Z,5.60
2018-10-05T00:50:12.902Z,5.60
2018-10-05T00:52:42.010Z,5.50
2018-10-05T00:55:11.135Z,5.50
2018-10-05T00:57:40.226Z,5.50
2018-10-05T01:00:09.426Z,5.40
2018-10-05T01:02:38.482Z,5.40
2018-10-05T01:05:07.575Z,5.40
2018-10-05T01:07:36.658Z,5.40
2018-10-05T01:10:06.098Z,5.30
2018-10-05T01:12:35.327Z,5.30
2018-10-05T01:15:04.545Z,5.30
2018-10-05T01:17:33.719Z,5.20
2018-10-05T01:20:03.324Z,5.20
2018-10-05T01:22:32.487Z,5.20
2018-10-05T01:25:01.596Z,5.20
2018-10-05T01:27:30.801Z,5.10
2018-10-05T01:30:00.061Z,5.10
2018-10-05T01:32:29.218Z,5.20
2018-10-05T01:34:58.387Z,5.10
2018-10-05T01:37:27.473Z,5.10
2018-10-05T01:39:56.597Z,5.10
2018-10-05T01:42:25.711Z,5.10
2018-10-05T01:44:54.873Z,5.10
2018-10-05T01:47:23.966Z,5.20
2018-10-05T01:49:53.883Z,5.20
2018-10-05T01:52:23.011Z,5.20
2018-10-05T01:54:52.166Z,5.10
2018-10-05T01:57:21.260Z,5.10
2018-10-05T01:59:50.382Z,5.10
2018-10-05T02:02:19.487Z,5.20
2018-10-05T02:04:48.559Z,5.10
2018-10-05T02:07:17.695Z,5.10
2018-10-05T02:09:46.823Z,5.10
2018-10-05T02:12:15.898Z,5.10
2018-10-05T02:14:44.954Z,5.10
2018-10-05T02:17:14.105Z,5.10
2018-10-05T02:19:49.386Z,5.10
2018-10-05T02:22:18.490Z,5.00
2018-10-05T02:24:47.615Z,5.00
2018-10-05T02:27:16.634Z,4.90
2018-10-05T02:29:45.692Z,4.90
2018-10-05T02:32:15.275Z,4.90
2018-10-05T02:34:44.419Z,4.90
2018-10-05T02:37:13.802Z,4.90
2018-10-05T02:39:43.313Z,4.80
2018-10-05T02:42:12.451Z,4.80
2018-10-05T02:44:41.591Z,4.70
2018-10-05T02:47:10.738Z,4.70
2018-10-05T02:49:39.901Z,4.70
2018-10-05T02:52:09.175Z,4.70
2018-10-05T02:54:38.322Z,4.60
2018-10-05T02:57:07.417Z,4.70
2018-10-05T02:59:36.511Z,4.60
2018-10-05T03:02:16.609Z,4.60
2018-10-05T03:04:45.578Z,4.60
2018-10-05T03:07:14.738Z,4.60
2018-10-05T03:09:43.830Z,4.60
2018-10-05T03:12:12.949Z,4.50
2018-10-05T03:14:42.102Z,4.50
2018-10-05T03:17:11.265Z,4.50
2018-10-05T03:19:40.569Z,4.40
2018-10-05T03:22:09.807Z,4.40
2018-10-05T03:24:38.951Z,4.40
2018-10-05T03:27:09.011Z,4.30
2018-10-05T03:29:38.124Z,4.30
2018-10-05T03:32:07.448Z,4.20
2018-10-05T03:34:36.575Z,4.20
2018-10-05T03:37:05.715Z,4.10
2018-10-05T03:39:34.802Z,4.10
2018-10-05T03:42:03.946Z,4.10
2018-10-05T03:44:33.025Z,4.10
2018-10-05T03:47:02.271Z,4.10
2018-10-05T03:49:31.382Z,4.00
2018-10-05T03:52:00.561Z,4.00
2018-10-05T03:54:29.613Z,4.00
2018-10-05T03:56:58.761Z,4.00
2018-10-05T03:59:27.893Z,4.00
2018-10-05T04:01:56.979Z,4.00
2018-10-05T04:04:26.198Z,3.90
2018-10-05T04:06:55.312Z,3.90
2018-10-05T04:09:24.426Z,3.90
2018-10-05T04:11:53.480Z,3.90
2018-10-05T04:14:23.219Z,3.90
2018-10-05T04:16:52.290Z,3.90
2018-10-05T04:19:21.445Z,3.90
2018-10-05T04:21:50.555Z,3.90
2018-10-05T04:24:19.736Z,3.90
2018-10-05T04:26:48.870Z,3.90
2018-10-05T04:29:17.994Z,3.90
2018-10-05T04:31:47.156Z,3.90
2018-10-05T04:34:16.270Z,3.90
2018-10-05T04:36:45.746Z,3.80
2018-10-05T04:39:14.858Z,3.80
2018-10-05T04:41:44.007Z,3.80
2018-10-05T04:44:13.115Z,3.80
2018-10-05T04:46:48.803Z,3.80
2018-10-05T04:49:17.921Z,3.70
2018-10-05T04:51:47.518Z,3.70
2018-10-05T04:54:16.670Z,3.70
2018-10-05T04:56:45.793Z,3.60
2018-10-05T04:59:14.974Z,3.60
2018-10-05T05:01:44.060Z,3.60
2018-10-05T05:04:13.205Z,3.60
2018-10-05T05:06:42.324Z,3.60
2018-10-05T05:09:11.459Z,3.60
2018-10-05T05:11:40.623Z,3.60
2018-10-05T05:14:09.870Z,3.50
2018-10-05T05:16:39.035Z,3.50
2018-10-05T05:19:08.110Z,3.50
2018-10-05T05:21:37.231Z,3.50
2018-10-05T05:24:06.348Z,3.50
2018-10-05T05:26:35.434Z,3.50
2018-10-05T05:29:04.508Z,3.40
2018-10-05T05:31:33.747Z,3.50
2018-10-05T05:34:02.951Z,3.40
2018-10-05T05:36:31.965Z,3.40
2018-10-05T05:39:01.109Z,3.40
2018-10-05T05:41:30.246Z,3.40
2018-10-05T05:43:59.313Z,3.40
2018-10-05T05:46:28.409Z,3.40
2018-10-05T05:48:57.559Z,3.40
2018-10-05T05:51:26.642Z,3.40
2018-10-05T05:53:55.957Z,3.40
2018-10-05T05:56:25.070Z,3.40
2018-10-05T05:58:54.265Z,3.40
2018-10-05T06:01:23.339Z,3.40
2018-10-05T06:03:52.477Z,3.40
2018-10-05T06:06:21.593Z,3.40
2018-10-05T06:08:50.755Z,3.40
2018-10-05T06:11:19.877Z,3.50
2018-10-05T06:13:49.021Z,3.50
2018-10-05T06:16:18.186Z,3.50
2018-10-05T06:18:47.315Z,3.60
2018-10-05T06:21:16.525Z,3.70
2018-10-05T06:23:45.654Z,3.70
2018-10-05T06:26:15.265Z,3.80
2018-10-05T06:28:44.360Z,3.80
2018-10-05T06:31:13.392Z,3.90
2018-10-05T06:33:42.512Z,4.00
2018-10-05T06:36:11.644Z,4.00
2018-10-05T06:38:40.802Z,4.10
2018-10-05T06:41:09.966Z,4.20
2018-10-05T06:43:39.064Z,4.40
2018-10-05T06:46:08.333Z,4.40
2018-10-05T06:48:37.442Z,4.50
2018-10-05T06:51:06.593Z,4.60
2018-10-05T06:53:35.709Z,4.70
2018-10-05T06:56:04.870Z,4.90
2018-10-05T06:58:33.943Z,5.00
2018-10-05T07:01:03.107Z,5.10
2018-10-05T07:03:32.213Z,5.30
2018-10-05T07:06:01.331Z,5.40
2018-10-05T07:08:30.397Z,5.60
2018-10-05T07:10:59.555Z,5.70
2018-10-05T07:13:28.695Z,5.90
2018-10-05T07:15:57.986Z,6.10
2018-10-05T07:18:26.981Z,6.30
2018-10-05T07:20:56.102Z,6.50
2018-10-05T07:23:25.496Z,6.70
2018-10-05T07:25:54.604Z,6.90
2018-10-05T07:28:23.808Z,7.20
2018-10-05T07:30:52.886Z,7.30
2018-10-05T07:33:21.970Z,7.60
2018-10-05T07:35:51.139Z,7.80
2018-10-05T07:38:20.126Z,8.00
2018-10-05T07:40:49.233Z,8.20
2018-10-05T07:43:18.334Z,8.40
2018-10-05T07:45:47.454Z,8.60
2018-10-05T07:48:16.606Z,8.80
2018-10-05T07:50:45.701Z,9.00
2018-10-05T07:53:14.778Z,9.20
2018-10-05T07:55:43.987Z,9.50
2018-10-05T07:58:13.266Z,9.70
2018-10-05T08:00:42.358Z,9.90
2018-10-05T08:03:11.453Z,10.10
2018-10-05T08:05:40.526Z,10.40
2018-10-05T08:08:09.549Z,10.70
2018-10-05T08:10:38.750Z,10.90
2018-10-05T08:13:07.866Z,11.10
2018-10-05T08:15:36.904Z,11.30
2018-10-05T08:18:05.961Z,11.50
2018-10-05T08:20:35.082Z,11.70
2018-10-05T08:23:04.212Z,11.90
2018-10-05T08:25:33.319Z,12.00
2018-10-05T08:28:02.583Z,12.20
2018-10-05T08:30:32.810Z,12.40
2018-10-05T08:33:01.863Z,12.60
2018-10-05T08:35:30.959Z,12.80
2018-10-05T08:38:00.219Z,12.90
2018-10-05T08:40:29.433Z,13.10
2018-10-05T08:42:58.466Z,13.20
2018-10-05T08:45:34.275Z,13.30
2018-10-05T08:48:03.330Z,13.50
2018-10-05T08:50:33.343Z,13.50
2018-10-05T08:53:02.430Z,13.70
2018-10-05T08:55:31.491Z,13.80
2018-10-05T08:58:00.609Z,13.80
2018-10-05T09:00:29.702Z,13.90
2018-10-05T09:02:58.794Z,14.00
2018-10-05T09:05:27.891Z,14.10
2018-10-05T09:07:56.985Z,14.20
2018-10-05T09:10:26.095Z,14.30
2018-10-05T09:12:55.314Z,14.40
2018-10-05T09:15:24.436Z,14.50
2018-10-05T09:17:53.604Z,14.50
2018-10-05T09:20:22.686Z,14.70
2018-10-05T09:22:51.943Z,14.80
2018-10-05T09:25:20.973Z,14.80
2018-10-05T09:27:50.080Z,14.80
2018-10-05T09:30:19.155Z,14.80
2018-10-05T09:32:48.439Z,14.90
2018-10-05T09:35:17.538Z,14.90
2018-10-05T09:37:46.724Z,14.90
2018-10-05T09:40:15.728Z,15.00
2018-10-05T09:42:44.858Z,15.00
2018-10-05T09:45:13.932Z,15.10
2018-10-05T09:47:43.098Z,15.10
2018-10-05T09:50:12.278Z,15.20
2018-10-05T09:52:41.504Z,15.30
2018-10-05T09:55:10.599Z,15.30
2018-10-05T09:57:39.855Z,15.40
2018-10-05T10:00:13.124Z,15.50
2018-10-05T10:02:48.164Z,15.50
2018-10-05T10:05:17.243Z,15.60
2018-10-05T10:07:46.336Z,15.70
2018-10-05T10:10:15.414Z,15.80
2018-10-05T10:12:44.530Z,16.00
2018-10-05T10:15:13.632Z,16.10
2018-10-05T10:17:42.750Z,16.20
2018-10-05T10:20:11.834Z,16.40
2018-10-05T10:22:41.034Z,16.50
2018-10-05T10:25:10.477Z,16.70
2018-10-05T10:27:39.819Z,16.80
2018-10-05T10:30:09.175Z,17.00
2018-10-05T10:32:38.339Z,17.10
2018-10-05T10:35:07.482Z,17.30
2018-10-05T10:37:36.633Z,17.40
2018-10-05T10:40:05.840Z,17.50
2018-10-05T10:42:34.987Z,17.60
2018-10-05T10:45:04.374Z,17.70
2018-10-05T10:47:33.548Z,17.80
2018-10-05T10:50:02.702Z,18.00
2018-10-05T10:52:31.914Z,18.10
2018-10-05T10:55:01.057Z,18.20
2018-10-05T10:57:30.258Z,18.20
2018-10-05T10:59:59.399Z,18.30
2018-10-05T11:02:28.452Z,18.40
2018-10-05T11:04:57.705Z,18.50
2018-10-05T11:07:26.765Z,18.70
2018-10-05T11:09:55.934Z,18.80
2018-10-05T11:12:25.063Z,19.00
2018-10-05T11:14:54.139Z,19.20
2018-10-05T11:17:23.282Z,19.30
2018-10-05T11:19:52.373Z,19.40
2018-10-05T11:22:21.554Z,19.60
2018-10-05T11:24:50.726Z,19.80
2018-10-05T11:27:19.845Z,19.90
2018-10-05T11:29:49.016Z,20.10
2018-10-05T11:32:18.148Z,20.20
2018-10-05T11:34:47.252Z,20.20
2018-10-05T11:37:16.334Z,20.30
2018-10-05T11:39:45.493Z,20.30
2018-10-05T11:42:14.532Z,20.30
2018-10-05T11:44:43.697Z,20.40
2018-10-05T11:47:12.878Z,20.40
2018-10-05T11:49:42.029Z,20.50
2018-10-05T11:52:11.123Z,20.60
2018-10-05T11:54:40.289Z,20.70
2018-10-05T11:57:09.429Z,20.90
2018-10-05T11:59:38.621Z,21.00
2018-10-05T12:02:07.690Z,21.10
2018-10-05T12:04:36.787Z,21.30
2018-10-05T12:07:05.897Z,21.40
2018-10-05T12:09:35.039Z,21.50
2018-10-05T12:12:04.091Z,21.50
2018-10-05T12:14:33.366Z,21.70
2018-10-05T12:17:02.836Z,21.80
2018-10-05T12:19:32.058Z,21.90
2018-10-05T12:22:01.150Z,22.00
2018-10-05T12:24:30.298Z,22.10
2018-10-05T12:26:59.522Z,22.30
2018-10-05T12:29:28.697Z,22.30
2018-10-05T12:31:57.743Z,22.50
2018-10-05T12:34:26.901Z,22.60
2018-10-05T12:36:55.994Z,22.70
2018-10-05T12:39:25.104Z,22.80
2018-10-05T12:41:54.280Z,22.80
2018-10-05T12:44:23.427Z,22.90
2018-10-05T12:46:52.522Z,23.10
2018-10-05T12:49:21.614Z,23.20
2018-10-05T12:51:50.747Z,23.30
2018-10-05T12:54:19.881Z,23.50
2018-10-05T12:56:49.031Z,23.50
2018-10-05T12:59:18.203Z,23.70
2018-10-05T13:01:47.355Z,23.80
2018-10-05T13:04:16.469Z,23.90
2018-10-05T13:06:45.518Z,24.00
2018-10-05T13:09:14.638Z,24.00
2018-10-05T13:11:43.760Z,24.10
2018-10-05T13:14:12.902Z,24.10
2018-10-05T13:16:41.970Z,24.10
2018-10-05T13:19:11.142Z,24.10
2018-10-05T13:21:40.245Z,24.20
2018-10-05T13:24:09.353Z,24.30
2018-10-05T13:26:39.222Z,24.30
2018-10-05T13:29:08.365Z,24.40
2018-10-05T13:31:37.492Z,24.40
2018-10-05T13:34:06.799Z,24.40
2018-10-05T13:36:36.178Z,24.50
2018-10-05T13:39:07.416Z,24.50
2018-10-05T13:41:36.544Z,24.50
2018-10-05T13:44:06.052Z,24.50
2018-10-05T13:46:36.630Z,24.50
2018-10-05T13:49:06.487Z,24.50
2018-10-05T13:51:37.042Z,24.50
2018-10-05T13:54:06.759Z,24.50
2018-10-05T13:56:36.158Z,24.50
2018-10-05T13:59:06.016Z,24.50
2018-10-05T14:01:35.488Z,24.60
2018-10-05T14:04:05.072Z,24.60
2018-10-05T14:06:34.584Z,24.50
2018-10-05T14:09:05.139Z,24.60
2018-10-05T14:11:34.282Z,24.60
2018-10-05T14:14:03.457Z,24.50
2018-10-05T14:16:32.641Z,24.50
2018-10-05T14:19:01.815Z,24.50
2018-10-05T14:21:31.057Z,24.50
2018-10-05T14:24:00.170Z,24.40
2018-10-05T14:26:29.416Z,24.30
2018-10-05T14:28:58.538Z,24.20
2018-10-05T14:31:27.724Z,24.20
2018-10-05T14:33:56.943Z,24.20
2018-10-05T14:36:26.318Z,24.20
2018-10-05T14:38:57.000Z,24.20
2018-10-05T14:41:26.205Z,24.20
2018-10-05T14:43:55.771Z,24.20
2018-10-05T14:46:25.249Z,24.20
2018-10-05T14:48:54.394Z,24.30
2018-10-05T14:51:24.214Z,24.30
2018-10-05T14:53:54.028Z,24.30
2018-10-05T14:56:23.211Z,24.30
2018-10-05T14:58:52.406Z,24.20
2018-10-05T15:01:21.539Z,24.10
2018-10-05T15:03:50.742Z,24.00
2018-10-05T15:06:19.963Z,24.00
2018-10-05T15:08:49.134Z,23.90
2018-10-05T15:11:18.306Z,23.80
2018-10-05T15:13:47.597Z,23.70
2018-10-05T15:16:17.150Z,23.70
2018-10-05T15:18:46.418Z,23.70
2018-10-05T15:21:15.593Z,23.70
2018-10-05T15:23:44.841Z,23.70
2018-10-05T15:26:13.902Z,23.70
2018-10-05T15:28:43.054Z,23.60
2018-10-05T15:31:12.209Z,23.60
2018-10-05T15:33:41.346Z,23.50
2018-10-05T15:36:10.570Z,23.50
2018-10-05T15:38:41.317Z,23.40
2018-10-05T15:41:11.435Z,23.40
2018-10-05T15:43:40.578Z,23.30
2018-10-05T15:46:10.897Z,23.30
2018-10-05T15:48:40.134Z,23.10
2018-10-05T15:51:09.318Z,23.00
2018-10-05T15:53:39.003Z,22.80
2018-10-05T15:56:08.246Z,22.70
2018-10-05T15:58:37.342Z,22.50
2018-10-05T16:01:06.062Z,22.40
2018-10-05T16:03:40.703Z,22.30
2018-10-05T16:06:09.991Z,22.20
2018-10-05T16:08:39.715Z,22.10
2018-10-05T16:11:09.180Z,22.00
2018-10-05T16:13:38.428Z,21.90
2018-10-05T16:16:07.622Z,21.80
2018-10-05T16:18:36.841Z,21.60
2018-10-05T16:21:07.423Z,21.40
2018-10-05T16:23:36.983Z,21.30
2018-10-05T16:26:06.164Z,21.20
2018-10-05T16:28:35.279Z,21.00
2018-10-05T16:31:05.160Z,20.90
2018-10-05T16:33:34.678Z,20.70
2018-10-05T16:36:04.443Z,20.50
2018-10-05T16:38:33.738Z,20.30
2018-10-05T16:41:02.959Z,20.00
2018-10-05T16:43:32.972Z,19.90
2018-10-05T16:46:03.654Z,19.70
2018-10-05T16:48:32.790Z,19.60
2018-10-05T16:51:01.941Z,19.40
2018-10-05T16:53:31.357Z,19.30
2018-10-05T16:56:00.434Z,19.10
2018-10-05T16:58:29.645Z,18.80
2018-10-05T17:00:58.822Z,18.60
2018-10-05T17:03:28.565Z,18.40
2018-10-05T17:05:57.624Z,18.20
2018-10-05T17:08:29.350Z,18.10
2018-10-05T17:10:59.926Z,17.90
2018-10-05T17:13:41.051Z,17.70
2018-10-05T17:16:10.138Z,17.60
2018-10-05T17:18:39.396Z,17.50
2018-10-05T17:21:09.029Z,17.30
2018-10-05T17:23:38.230Z,17.20
2018-10-05T17:26:07.590Z,17.10
2018-10-05T17:28:36.810Z,17.00
2018-10-05T17:31:06.197Z,16.90
2018-10-05T17:33:35.406Z,16.80
2018-10-05T17:36:04.521Z,16.70
2018-10-05T17:38:34.115Z,16.60
2018-10-05T17:41:03.299Z,16.50
2018-10-05T17:43:32.948Z,16.40
2018-10-05T17:46:02.110Z,16.20
2018-10-05T17:48:31.484Z,16.10
2018-10-05T17:51:01.046Z,16.00
2018-10-05T17:53:30.412Z,15.90
2018-10-05T17:56:00.462Z,15.80
2018-10-05T17:58:30.571Z,15.70
2018-10-05T18:00:59.901Z,15.60
2018-10-05T18:03:29.162Z,15.40
2018-10-05T18:06:07.878Z,15.40
2018-10-05T18:08:37.092Z,15.30
2018-10-05T18:11:06.250Z,15.20
2018-10-05T18:13:35.437Z,15.10
2018-10-05T18:16:04.620Z,15.00
2018-10-05T18:18:33.913Z,14.90
2018-10-05T18:21:02.989Z,14.80
2018-10-05T18:23:32.198Z,14.70
2018-10-05T18:26:01.486Z,14.60
2018-10-05T18:28:30.636Z,14.50
2018-10-05T18:30:59.718Z,14.50
2018-10-05T18:33:29.538Z,14.40
2018-10-05T18:35:59.011Z,14.40
2018-10-05T18:38:28.178Z,14.30
2018-10-05T18:40:58.348Z,14.30
2018-10-05T18:43:28.112Z,14.20
2018-10-05T18:45:57.230Z,14.20
2018-10-05T18:48:26.311Z,14.10
2018-10-05T18:50:55.471Z,14.00
2018-10-05T18:53:24.533Z,13.90
2018-10-05T18:55:54.121Z,13.90
2018-10-05T18:58:23.322Z,13.80
2018-10-05T19:00:52.383Z,13.70
2018-10-05T19:03:22.374Z,13.60
2018-10-05T19:05:51.474Z,13.50
2018-10-05T19:08:20.640Z,13.40
2018-10-05T19:10:50.322Z,13.40
2018-10-05T19:13:19.450Z,13.30
2018-10-05T19:15:48.706Z,13.20
2018-10-05T19:18:17.884Z,13.20
2018-10-05T19:20:46.926Z,13.10
2018-10-05T19:23:16.042Z,13.10
2018-10-05T19:25:45.480Z,13.00
2018-10-05T19:28:14.750Z,12.90
2018-10-05T19:30:43.873Z,12.90
2018-10-05T19:33:13.210Z,12.90
2018-10-05T19:35:43.065Z,12.80
2018-10-05T19:38:12.543Z,12.80
2018-10-05T19:40:42.853Z,12.70
2018-10-05T19:43:12.846Z,12.70
2018-10-05T19:45:44.623Z,12.70
2018-10-05T19:48:13.899Z,12.60
2018-10-05T19:50:43.001Z,12.50
2018-10-05T19:53:12.812Z,12.50
2018-10-05T19:55:41.848Z,12.40
2018-10-05T19:58:10.971Z,12.40
2018-10-05T20:00:40.105Z,12.40
2018-10-05T20:03:09.370Z,12.30
2018-10-05T20:05:38.645Z,12.30
2018-10-05T20:08:08.107Z,12.20
2018-10-05T20:10:37.422Z,12.30
2018-10-05T20:13:06.970Z,12.20
2018-10-05T20:15:36.194Z,12.10
2018-10-05T20:18:05.463Z,12.10
2018-10-05T20:20:34.273Z,12.20
2018-10-05T20:23:03.453Z,12.10
2018-10-05T20:25:32.594Z,12.10
2018-10-05T20:28:01.822Z,12.20
2018-10-05T20:30:30.985Z,12.20
2018-10-05T20:33:00.563Z,12.20
2018-10-05T20:35:29.685Z,12.20
2018-10-05T20:37:58.722Z,12.30
2018-10-05T20:40:27.787Z,12.30
2018-10-05T20:42:56.968Z,12.40
2018-10-05T20:45:26.094Z,12.50
2018-10-05T20:47:55.158Z,12.50
2018-10-05T20:50:24.198Z,12.60
2018-10-05T20:52:53.628Z,12.60
2018-10-05T20:55:22.749Z,12.60
2018-10-05T20:57:51.858Z,12.60
2018-10-05T21:00:20.921Z,12.60
2018-10-05T21:02:50.031Z,12.60
2018-10-05T21:05:19.143Z,12.60
2018-10-05T21:07:48.383Z,12.60
2018-10-05T21:10:17.478Z,12.60
2018-10-05T21:12:46.730Z,12.70
2018-10-05T21:15:15.955Z,12.70
2018-10-05T21:17:45.031Z,12.70
2018-10-05T21:20:14.140Z,12.60
2018-10-05T21:22:43.290Z,12.60
2018-10-05T21:25:12.345Z,12.50
2018-10-05T21:27:41.341Z,12.50
2018-10-05T21:30:10.355Z,12.40
2018-10-05T21:32:39.790Z,12.30
2018-10-05T21:35:08.942Z,12.20
2018-10-05T21:37:37.983Z,12.10
2018-10-05T21:40:07.102Z,12.10
2018-10-05T21:42:36.219Z,12.00
2018-10-05T21:45:05.560Z,12.00
2018-10-05T21:47:34.577Z,11.90
2018-10-05T21:50:03.782Z,11.90
2018-10-05T21:52:32.916Z,11.80
2018-10-05T21:55:02.009Z,11.80
2018-10-05T21:57:31.094Z,11.80
2018-10-05T22:00:00.191Z,11.70
2018-10-05T22:02:34.864Z,11.70
2018-10-05T22:05:05.363Z,11.60
2018-10-05T22:07:34.437Z,11.60
2018-10-05T22:10:03.645Z,11.50
2018-10-05T22:12:32.737Z,11.50
2018-10-05T22:15:01.814Z,11.50
2018-10-05T22:17:30.892Z,11.50
2018-10-05T22:20:00.062Z,11.50
2018-10-05T22:22:29.153Z,11.50
2018-10-05T22:24:58.240Z,11.50
2018-10-05T22:27:27.332Z,11.40
2018-10-05T22:29:56.542Z,11.40
2018-10-05T22:32:25.558Z,11.40
2018-10-05T22:34:54.650Z,11.40
2018-10-05T22:37:23.709Z,11.40
2018-10-05T22:39:52.778Z,11.40
2018-10-05T22:42:21.996Z,11.30
2018-10-05T22:44:51.111Z,11.30
2018-10-05T22:47:20.198Z,11.20
2018-10-05T22:49:49.399Z,11.20
2018-10-05T22:52:18.482Z,11.10
2018-10-05T22:54:48.078Z,11.00
2018-10-05T22:57:17.164Z,11.00
2018-10-05T22:59:46.208Z,10.90
2018-10-05T23:02:15.320Z,10.80
2018-10-05T23:04:44.438Z,10.70
2018-10-05T23:07:13.578Z,10.70
2018-10-05T23:09:42.714Z,10.60
2018-10-05T23:12:11.802Z,10.60
2018-10-05T23:14:41.162Z,10.50
2018-10-05T23:17:10.228Z,10.50
2018-10-05T23:19:40.014Z,10.40
2018-10-05T23:22:09.085Z,10.40
2018-10-05T23:24:38.598Z,10.30
2018-10-05T23:27:07.757Z,10.30
2018-10-05T23:29:36.887Z,10.30
2018-10-05T23:32:05.957Z,10.30
2018-10-05T23:34:35.386Z,10.20
2018-10-05T23:37:04.874Z,10.20
2018-10-05T23:39:33.958Z,10.20
2018-10-05T23:42:03.618Z,10.20
2018-10-05T23:44:32.678Z,10.20
2018-10-05T23:47:01.742Z,10.20
2018-10-05T23:49:30.817Z,10.20
2018-10-05T23:52:11.251Z,10.20
2018-10-05T23:54:40.550Z,10.20
2018-10-05T23:57:09.546Z,10.20
2018-10-05T23:59:38.718Z,10.20
